createdAt,value
2022-08-16T00:00:03.432Z,68.73
2022-08-16T00:00:47.569Z,68.83
2022-08-16T00:01:46.592Z,68.73
2022-08-16T00:02:46.642Z,68.73
2022-08-16T00:03:46.545Z,68.73
2022-08-16T00:04:46.550Z,68.73
2022-08-16T00:05:48.591Z,68.73
2022-08-16T00:06:47.534Z,68.73
2022-08-16T00:07:46.499Z,68.73
2022-08-16T00:08:46.486Z,68.73
2022-08-16T00:09:46.476Z,68.73
2022-08-16T00:10:46.466Z,68.73
2022-08-16T00:11:46.453Z,68.73
2022-08-16T00:12:47.608Z,68.73
2022-08-16T00:13:53.713Z,68.73
2022-08-16T00:14:47.441Z,68.73
2022-08-16T00:15:51.666Z,68.73
2022-08-16T00:17:00.776Z,68.73
2022-08-16T00:17:57.040Z,68.73
2022-08-16T00:18:47.380Z,68.73
2022-08-16T00:19:46.409Z,68.73
2022-08-16T00:20:46.378Z,68.73
2022-08-16T00:21:46.352Z,68.73
2022-08-16T00:22:47.528Z,68.73
2022-08-16T00:23:46.545Z,68.73
2022-08-16T00:24:46.963Z,68.63
2022-08-16T00:26:33.626Z,68.73
2022-08-16T00:26:47.294Z,68.73
2022-08-16T00:27:47.141Z,68.63
2022-08-16T00:28:46.275Z,68.63
2022-08-16T00:29:46.286Z,68.63
2022-08-16T00:30:46.253Z,68.73
2022-08-16T00:31:47.213Z,68.73
2022-08-16T00:32:47.448Z,68.73
2022-08-16T00:33:46.223Z,68.73
2022-08-16T00:34:52.682Z,68.73
2022-08-16T00:35:47.198Z,68.63
2022-08-16T00:36:47.155Z,68.63
2022-08-16T00:37:56.998Z,68.63
2022-08-16T00:38:47.167Z,68.73
2022-08-16T00:39:47.265Z,68.73
2022-08-16T00:40:50.818Z,68.73
2022-08-16T00:41:47.139Z,68.63
2022-08-16T00:42:46.364Z,68.63
2022-08-16T00:43:47.117Z,68.63
2022-08-16T00:44:46.105Z,68.63
2022-08-16T00:45:57.929Z,68.63
2022-08-16T00:46:52.874Z,68.66
2022-08-16T00:47:48.976Z,68.73
2022-08-16T00:48:46.065Z,68.73
2022-08-16T00:49:46.053Z,68.73
2022-08-16T00:50:47.063Z,68.73
2022-08-16T00:51:47.054Z,68.76
2022-08-16T00:52:51.195Z,68.73
2022-08-16T00:53:46.012Z,68.73
2022-08-16T00:54:46.019Z,68.63
2022-08-16T00:55:45.992Z,68.63
2022-08-16T00:56:58.539Z,68.63
2022-08-16T00:57:58.256Z,68.63
2022-08-16T00:58:46.979Z,68.63
2022-08-16T00:59:59.030Z,68.66
2022-08-16T01:00:53.907Z,68.63
2022-08-16T01:01:46.926Z,68.63
2022-08-16T01:02:48.736Z,68.63
2022-08-16T01:03:45.927Z,68.63
2022-08-16T01:05:04.670Z,68.63
2022-08-16T01:05:46.882Z,68.63
2022-08-16T01:06:49.176Z,68.63
2022-08-16T01:07:52.026Z,68.63
2022-08-16T01:08:46.875Z,68.63
2022-08-16T01:09:45.839Z,68.66
2022-08-16T01:10:45.831Z,68.63
2022-08-16T01:11:51.723Z,68.63
2022-08-16T01:12:46.976Z,68.63
2022-08-16T01:13:45.796Z,68.73
2022-08-16T01:14:47.306Z,68.63
2022-08-16T01:15:45.775Z,68.63
2022-08-16T01:16:45.767Z,68.63
2022-08-16T01:17:45.753Z,68.63
2022-08-16T01:18:46.771Z,68.73
2022-08-16T01:19:45.732Z,68.73
2022-08-16T01:20:45.726Z,68.73
2022-08-16T01:21:46.711Z,68.73
2022-08-16T01:22:47.504Z,68.73
2022-08-16T01:23:45.707Z,68.73
2022-08-16T01:24:54.134Z,68.73
2022-08-16T01:25:59.949Z,68.76
2022-08-16T01:26:46.656Z,68.73
2022-08-16T01:27:45.669Z,68.73
2022-08-16T01:28:45.748Z,68.73
2022-08-16T01:29:57.615Z,68.73
2022-08-16T01:30:50.021Z,68.76
2022-08-16T01:31:45.604Z,68.63
2022-08-16T01:32:45.597Z,68.66
2022-08-16T01:33:46.601Z,68.63
2022-08-16T01:34:47.429Z,68.66
2022-08-16T01:35:46.561Z,68.63
2022-08-16T01:36:46.571Z,68.63
2022-08-16T01:37:46.540Z,68.66
2022-08-16T01:38:49.293Z,68.63
2022-08-16T01:39:46.606Z,68.63
2022-08-16T01:40:45.510Z,68.63
2022-08-16T01:41:45.525Z,68.66
2022-08-16T01:42:48.095Z,68.63
2022-08-16T01:43:45.478Z,68.66
2022-08-16T01:44:46.470Z,68.66
2022-08-16T01:45:46.458Z,68.63
2022-08-16T01:46:45.449Z,68.63
2022-08-16T01:47:49.310Z,68.63
2022-08-16T01:48:46.424Z,68.63
2022-08-16T01:50:42.899Z,68.63
2022-08-16T01:51:08.833Z,68.63
2022-08-16T01:51:46.393Z,68.66
2022-08-16T01:52:46.516Z,68.63
2022-08-16T01:53:45.373Z,68.63
2022-08-16T01:54:46.363Z,68.63
2022-08-16T01:55:53.832Z,68.63
2022-08-16T01:56:46.362Z,68.63
2022-08-16T01:57:53.795Z,68.66
2022-08-16T01:58:48.039Z,68.63
2022-08-16T01:59:45.311Z,68.66
2022-08-16T02:00:45.299Z,68.66
2022-08-16T02:01:49.621Z,68.66
2022-08-16T02:02:46.466Z,68.66
2022-08-16T02:03:50.283Z,68.66
2022-08-16T02:04:54.378Z,68.66
2022-08-16T02:05:51.782Z,68.66
2022-08-16T02:06:46.769Z,68.63
2022-08-16T02:07:45.225Z,68.63
2022-08-16T02:08:45.215Z,68.66
2022-08-16T02:09:58.431Z,68.63
2022-08-16T02:10:46.194Z,68.66
2022-08-16T02:11:48.481Z,68.66
2022-08-16T02:12:56.188Z,68.66
2022-08-16T02:13:46.161Z,68.56
2022-08-16T02:14:46.172Z,68.56
2022-08-16T02:15:45.143Z,68.56
2022-08-16T02:16:45.129Z,68.66
2022-08-16T02:17:45.121Z,68.66
2022-08-16T02:18:45.109Z,68.66
2022-08-16T02:19:58.713Z,68.53
2022-08-16T02:20:46.086Z,68.66
2022-08-16T02:22:07.810Z,68.56
2022-08-16T02:22:46.540Z,68.56
2022-08-16T02:23:45.058Z,68.66
2022-08-16T02:24:46.093Z,68.66
2022-08-16T02:25:51.801Z,68.56
2022-08-16T02:26:46.022Z,68.53
2022-08-16T02:27:45.016Z,68.56
2022-08-16T02:28:47.212Z,68.56
2022-08-16T02:29:44.996Z,68.56
2022-08-16T02:30:50.516Z,68.56
2022-08-16T02:32:03.471Z,68.53
2022-08-16T02:32:50.034Z,68.56
2022-08-16T02:33:50.128Z,68.56
2022-08-16T02:34:44.939Z,68.66
2022-08-16T02:35:54.513Z,68.66
2022-08-16T02:36:49.693Z,68.66
2022-08-16T02:37:52.724Z,68.66
2022-08-16T02:38:45.894Z,68.66
2022-08-16T02:39:44.942Z,68.66
2022-08-16T02:40:44.874Z,68.53
2022-08-16T02:41:44.883Z,68.56
2022-08-16T02:42:45.862Z,68.56
2022-08-16T02:43:44.843Z,68.56
2022-08-16T02:44:44.850Z,68.56
2022-08-16T02:45:44.824Z,68.56
2022-08-16T02:46:50.379Z,68.66
2022-08-16T02:48:00.653Z,68.56
2022-08-16T02:48:47.512Z,68.56
2022-08-16T02:49:59.345Z,68.56
2022-08-16T02:50:54.573Z,68.56
2022-08-16T02:51:45.756Z,68.56
2022-08-16T02:52:44.807Z,68.56
2022-08-16T02:53:45.756Z,68.66
2022-08-16T02:54:44.726Z,68.66
2022-08-16T02:55:44.717Z,68.66
2022-08-16T02:56:47.699Z,68.66
2022-08-16T02:57:54.596Z,68.66
2022-08-16T02:58:45.701Z,68.66
2022-08-16T02:59:44.676Z,68.63
2022-08-16T03:00:45.587Z,68.66
2022-08-16T03:01:45.727Z,68.66
2022-08-16T03:02:44.643Z,68.66
2022-08-16T03:04:39.481Z,68.66
2022-08-16T03:04:52.305Z,68.66
2022-08-16T03:05:45.639Z,68.66
2022-08-16T03:06:45.599Z,68.66
2022-08-16T03:07:50.600Z,68.66
2022-08-16T03:08:51.873Z,68.63
2022-08-16T03:09:45.588Z,68.66
2022-08-16T03:10:44.560Z,68.66
2022-08-16T03:11:44.546Z,68.66
2022-08-16T03:12:55.882Z,68.66
2022-08-16T03:13:45.524Z,68.66
2022-08-16T03:14:44.534Z,68.66
2022-08-16T03:15:44.503Z,68.66
2022-08-16T03:17:00.338Z,68.66
2022-08-16T03:17:53.325Z,68.66
2022-08-16T03:18:45.470Z,68.66
2022-08-16T03:19:48.366Z,68.66
2022-08-16T03:20:45.450Z,68.66
2022-08-16T03:21:45.439Z,68.66
2022-08-16T03:22:45.427Z,68.63
2022-08-16T03:23:44.418Z,68.63
2022-08-16T03:24:44.655Z,68.56
2022-08-16T03:25:44.940Z,68.56
2022-08-16T03:26:44.388Z,68.56
2022-08-16T03:27:44.409Z,68.56
2022-08-16T03:28:44.366Z,68.56
2022-08-16T03:29:54.816Z,68.56
2022-08-16T03:30:45.344Z,68.56
2022-08-16T03:31:44.355Z,68.56
2022-08-16T03:32:45.343Z,68.56
2022-08-16T03:33:44.314Z,68.56
2022-08-16T03:34:44.304Z,68.53
2022-08-16T03:35:45.296Z,68.56
2022-08-16T03:36:44.282Z,68.53
2022-08-16T03:38:01.563Z,68.56
2022-08-16T03:38:45.279Z,68.53
2022-08-16T03:39:44.307Z,68.56
2022-08-16T03:40:44.239Z,68.56
2022-08-16T03:41:50.734Z,68.56
2022-08-16T03:43:19.261Z,68.56
2022-08-16T03:43:50.746Z,68.56
2022-08-16T03:44:49.573Z,68.56
2022-08-16T03:45:44.187Z,68.56
2022-08-16T03:46:47.506Z,68.56
2022-08-16T03:47:45.167Z,68.56
2022-08-16T03:48:44.173Z,68.56
2022-08-16T03:49:44.148Z,68.53
2022-08-16T03:50:44.134Z,68.56
2022-08-16T03:51:45.144Z,68.56
2022-08-16T03:52:44.240Z,68.56
2022-08-16T03:53:44.102Z,68.56
2022-08-16T03:54:53.615Z,68.56
2022-08-16T03:55:45.785Z,68.56
2022-08-16T03:56:57.992Z,68.56
2022-08-16T03:57:45.111Z,68.56
2022-08-16T03:58:45.068Z,68.56
2022-08-16T03:59:44.342Z,68.56
2022-08-16T04:00:44.103Z,68.56
2022-08-16T04:01:44.020Z,68.56
2022-08-16T04:02:44.016Z,68.56
2022-08-16T04:03:44.274Z,68.56
2022-08-16T04:04:43.985Z,68.56
2022-08-16T04:05:44.479Z,68.56
2022-08-16T04:06:43.982Z,68.56
2022-08-16T04:07:43.956Z,68.56
2022-08-16T04:08:43.965Z,68.56
2022-08-16T04:09:43.934Z,68.56
2022-08-16T04:10:43.921Z,68.66
2022-08-16T04:11:43.915Z,68.56
2022-08-16T04:12:53.763Z,68.56
2022-08-16T04:14:01.130Z,68.56
2022-08-16T04:14:46.405Z,68.56
2022-08-16T04:15:43.868Z,68.56
2022-08-16T04:16:43.857Z,68.56
2022-08-16T04:17:43.848Z,68.56
2022-08-16T04:18:43.855Z,68.56
2022-08-16T04:19:45.555Z,68.56
2022-08-16T04:20:43.841Z,68.56
2022-08-16T04:21:45.930Z,68.56
2022-08-16T04:22:43.800Z,68.56
2022-08-16T04:23:44.802Z,68.56
2022-08-16T04:24:43.790Z,68.56
2022-08-16T04:25:47.028Z,68.56
2022-08-16T04:26:46.289Z,68.66
2022-08-16T04:27:54.210Z,68.66
2022-08-16T04:28:54.656Z,68.56
2022-08-16T04:29:46.481Z,68.66
2022-08-16T04:30:43.709Z,68.66
2022-08-16T04:31:43.913Z,68.66
2022-08-16T04:32:43.735Z,68.56
2022-08-16T04:33:50.977Z,68.66
2022-08-16T04:34:44.670Z,68.56
2022-08-16T04:35:43.679Z,68.56
2022-08-16T04:36:44.646Z,68.56
2022-08-16T04:37:43.656Z,68.56
2022-08-16T04:38:43.627Z,68.56
2022-08-16T04:39:47.354Z,68.56
2022-08-16T04:40:44.671Z,68.56
2022-08-16T04:41:43.624Z,68.56
2022-08-16T04:42:43.584Z,68.56
2022-08-16T04:43:43.894Z,68.56
2022-08-16T04:44:53.372Z,68.56
2022-08-16T04:45:44.557Z,68.56
2022-08-16T04:47:01.326Z,68.56
2022-08-16T04:47:44.549Z,68.56
2022-08-16T04:48:44.521Z,68.56
2022-08-16T04:49:44.074Z,68.56
2022-08-16T04:50:43.833Z,68.56
2022-08-16T04:51:43.510Z,68.56
2022-08-16T04:52:44.606Z,68.56
2022-08-16T04:53:43.471Z,68.56
2022-08-16T04:54:43.459Z,68.66
2022-08-16T04:55:43.448Z,68.56
2022-08-16T04:56:46.340Z,68.66
2022-08-16T04:57:44.444Z,68.56
2022-08-16T04:58:45.800Z,68.66
2022-08-16T04:59:43.404Z,68.66
2022-08-16T05:00:43.416Z,68.56
2022-08-16T05:01:58.486Z,68.56
2022-08-16T05:02:44.416Z,68.56
2022-08-16T05:04:00.612Z,68.56
2022-08-16T05:04:44.368Z,68.56
2022-08-16T05:05:45.161Z,68.56
2022-08-16T05:06:45.907Z,68.56
2022-08-16T05:07:57.824Z,68.56
2022-08-16T05:08:47.126Z,68.56
2022-08-16T05:09:48.991Z,68.66
2022-08-16T05:10:44.285Z,68.66
2022-08-16T05:11:43.282Z,68.66
2022-08-16T05:12:44.824Z,68.66
2022-08-16T05:13:43.252Z,68.56
2022-08-16T05:14:45.533Z,68.56
2022-08-16T05:15:43.231Z,68.56
2022-08-16T05:16:43.221Z,68.56
2022-08-16T05:17:43.239Z,68.56
2022-08-16T05:18:43.205Z,68.66
2022-08-16T05:19:46.764Z,68.56
2022-08-16T05:21:01.405Z,68.66
2022-08-16T05:21:44.169Z,68.56
2022-08-16T05:22:44.590Z,68.56
2022-08-16T05:23:47.835Z,68.56
2022-08-16T05:24:44.138Z,68.56
2022-08-16T05:25:48.572Z,68.56
2022-08-16T05:26:51.241Z,68.56
2022-08-16T05:27:44.105Z,68.56
2022-08-16T05:28:43.115Z,68.56
2022-08-16T05:29:57.692Z,68.56
2022-08-16T05:30:44.076Z,68.56
2022-08-16T05:31:44.323Z,68.56
2022-08-16T05:32:47.414Z,68.66
2022-08-16T05:33:43.048Z,68.66
2022-08-16T05:34:43.036Z,68.56
2022-08-16T05:35:43.045Z,68.66
2022-08-16T05:36:44.087Z,68.66
2022-08-16T05:37:43.002Z,68.56
2022-08-16T05:38:42.993Z,68.56
2022-08-16T05:39:43.035Z,68.66
2022-08-16T05:40:42.970Z,68.66
2022-08-16T05:41:45.013Z,68.66
2022-08-16T05:42:46.066Z,68.66
2022-08-16T05:43:46.808Z,68.56
2022-08-16T05:44:42.948Z,68.56
2022-08-16T05:45:42.942Z,68.56
2022-08-16T05:46:43.545Z,68.56
2022-08-16T05:47:43.225Z,68.56
2022-08-16T05:48:42.888Z,68.53
2022-08-16T05:49:42.875Z,68.56
2022-08-16T05:50:42.867Z,68.56
2022-08-16T05:51:42.874Z,68.56
2022-08-16T05:52:44.851Z,68.56
2022-08-16T05:53:42.833Z,68.56
2022-08-16T05:54:46.757Z,68.53
2022-08-16T05:55:42.832Z,68.56
2022-08-16T05:56:43.081Z,68.56
2022-08-16T05:57:42.813Z,68.56
2022-08-16T05:58:42.786Z,68.53
2022-08-16T05:59:42.770Z,68.56
2022-08-16T06:00:42.765Z,68.53
2022-08-16T06:01:42.785Z,68.53
2022-08-16T06:02:42.740Z,68.56
2022-08-16T06:03:42.729Z,68.56
2022-08-16T06:04:45.107Z,68.53
2022-08-16T06:05:42.710Z,68.56
2022-08-16T06:06:43.534Z,68.56
2022-08-16T06:07:43.686Z,68.53
2022-08-16T06:08:46.492Z,68.53
2022-08-16T06:09:44.521Z,68.56
2022-08-16T06:11:09.816Z,68.53
2022-08-16T06:11:43.644Z,68.53
2022-08-16T06:12:42.653Z,68.63
2022-08-16T06:13:42.625Z,68.56
2022-08-16T06:14:42.634Z,68.56
2022-08-16T06:15:42.603Z,68.53
2022-08-16T06:16:42.593Z,68.56
2022-08-16T06:17:44.316Z,68.66
2022-08-16T06:18:42.573Z,68.56
2022-08-16T06:19:44.605Z,68.53
2022-08-16T06:20:55.202Z,68.66
2022-08-16T06:21:43.539Z,68.56
2022-08-16T06:22:58.670Z,68.56
2022-08-16T06:23:43.517Z,68.53
2022-08-16T06:24:54.065Z,68.53
2022-08-16T06:25:43.520Z,68.53
2022-08-16T06:26:45.957Z,68.53
2022-08-16T06:27:57.600Z,68.63
2022-08-16T06:28:43.467Z,68.53
2022-08-16T06:29:42.456Z,68.63
2022-08-16T06:30:43.996Z,68.53
2022-08-16T06:31:48.867Z,68.63
2022-08-16T06:32:48.474Z,68.63
2022-08-16T06:33:44.836Z,68.63
2022-08-16T06:34:55.292Z,68.53
2022-08-16T06:35:43.412Z,68.63
2022-08-16T06:36:42.386Z,68.63
2022-08-16T06:37:47.002Z,68.63
2022-08-16T06:38:55.878Z,68.63
2022-08-16T06:39:46.599Z,68.63
2022-08-16T06:40:49.136Z,68.63
2022-08-16T06:41:43.330Z,68.63
2022-08-16T06:42:47.467Z,68.63
2022-08-16T06:43:43.334Z,68.63
2022-08-16T06:44:42.321Z,68.63
2022-08-16T06:45:43.527Z,68.73
2022-08-16T06:46:42.279Z,68.73
2022-08-16T06:47:54.224Z,68.73
2022-08-16T06:48:45.375Z,68.73
2022-08-16T06:49:43.270Z,68.73
2022-08-16T06:50:43.238Z,68.73
2022-08-16T06:51:46.502Z,68.73
2022-08-16T06:52:58.338Z,68.73
2022-08-16T06:53:43.207Z,68.73
2022-08-16T06:54:42.198Z,68.73
2022-08-16T06:55:43.286Z,68.73
2022-08-16T06:56:42.176Z,68.73
2022-08-16T06:57:42.164Z,68.83
2022-08-16T06:58:42.155Z,68.83
2022-08-16T06:59:52.231Z,68.83
2022-08-16T07:00:43.283Z,68.83
2022-08-16T07:01:46.239Z,68.83
2022-08-16T07:02:51.789Z,68.93
2022-08-16T07:03:55.921Z,68.83
2022-08-16T07:04:43.114Z,68.83
2022-08-16T07:05:42.291Z,68.83
2022-08-16T07:06:43.276Z,68.93
2022-08-16T07:07:42.060Z,68.83
2022-08-16T07:08:42.072Z,68.83
2022-08-16T07:09:42.039Z,68.83
2022-08-16T07:10:42.031Z,68.83
2022-08-16T07:11:47.520Z,68.83
2022-08-16T07:12:47.091Z,68.83
2022-08-16T07:14:03.783Z,68.93
2022-08-16T07:14:43.007Z,68.93
2022-08-16T07:15:50.502Z,68.83
2022-08-16T07:16:43.000Z,68.83
2022-08-16T07:17:41.957Z,68.93
2022-08-16T07:18:59.271Z,68.93
2022-08-16T07:20:30.212Z,68.93
2022-08-16T07:20:47.354Z,68.83
2022-08-16T07:21:46.263Z,68.83
2022-08-16T07:22:42.909Z,68.83
2022-08-16T07:23:42.891Z,68.83
2022-08-16T07:24:45.644Z,68.83
2022-08-16T07:25:41.871Z,68.83
2022-08-16T07:26:41.863Z,68.83
2022-08-16T07:27:42.874Z,68.83
2022-08-16T07:28:41.841Z,68.83
2022-08-16T07:29:41.832Z,68.83
2022-08-16T07:30:46.250Z,68.83
2022-08-16T07:31:42.810Z,68.83
2022-08-16T07:32:41.879Z,68.93
2022-08-16T07:33:52.005Z,68.93
2022-08-16T07:34:48.276Z,68.83
2022-08-16T07:35:44.485Z,68.83
2022-08-16T07:36:42.755Z,68.83
2022-08-16T07:37:41.751Z,68.83
2022-08-16T07:38:41.739Z,68.83
2022-08-16T07:39:43.320Z,68.83
2022-08-16T07:41:00.110Z,68.83
2022-08-16T07:41:42.703Z,68.83
2022-08-16T07:42:41.697Z,68.83
2022-08-16T07:43:41.784Z,68.83
2022-08-16T07:44:49.076Z,68.83
2022-08-16T07:45:43.062Z,68.83
2022-08-16T07:46:41.655Z,68.83
2022-08-16T07:47:41.940Z,68.83
2022-08-16T07:48:41.656Z,68.83
2022-08-16T07:49:57.787Z,68.83
2022-08-16T07:50:56.350Z,68.83
2022-08-16T07:51:42.600Z,68.83
2022-08-16T07:52:41.592Z,68.83
2022-08-16T07:53:43.796Z,68.83
2022-08-16T07:54:45.883Z,68.83
2022-08-16T07:55:47.577Z,68.83
2022-08-16T07:56:42.549Z,68.83
2022-08-16T07:57:58.007Z,68.83
2022-08-16T07:58:43.340Z,68.83
2022-08-16T07:59:45.598Z,68.83
2022-08-16T08:00:41.538Z,68.83
2022-08-16T08:01:41.499Z,68.83
2022-08-16T08:02:41.520Z,68.83
2022-08-16T08:03:44.905Z,68.83
2022-08-16T08:04:42.463Z,68.83
2022-08-16T08:05:41.455Z,68.83
2022-08-16T08:06:41.443Z,68.83
2022-08-16T08:07:45.285Z,68.83
2022-08-16T08:08:50.284Z,68.83
2022-08-16T08:09:43.289Z,68.83
2022-08-16T08:10:41.401Z,68.83
2022-08-16T08:11:41.392Z,68.83
2022-08-16T08:12:43.787Z,68.83
2022-08-16T08:13:42.342Z,68.83
2022-08-16T08:14:41.379Z,68.83
2022-08-16T08:15:53.143Z,68.83
2022-08-16T08:16:45.503Z,68.83
2022-08-16T08:17:43.171Z,68.83
2022-08-16T08:18:41.473Z,68.93
2022-08-16T08:19:42.328Z,68.93
2022-08-16T08:20:42.295Z,68.93
2022-08-16T08:22:01.507Z,68.93
2022-08-16T08:22:42.274Z,68.83
2022-08-16T08:23:42.471Z,68.83
2022-08-16T08:24:44.023Z,68.83
2022-08-16T08:25:52.691Z,68.83
2022-08-16T08:26:42.792Z,68.83
2022-08-16T08:27:41.225Z,68.83
2022-08-16T08:28:41.213Z,68.83
2022-08-16T08:29:42.613Z,68.83
2022-08-16T08:30:50.138Z,68.83
2022-08-16T08:31:42.378Z,68.83
2022-08-16T08:32:57.998Z,68.83
2022-08-16T08:33:46.711Z,68.83
2022-08-16T08:34:42.175Z,68.83
2022-08-16T08:35:41.139Z,68.83
2022-08-16T08:36:41.130Z,68.83
2022-08-16T08:37:54.721Z,68.83
2022-08-16T08:38:45.960Z,68.83
2022-08-16T08:39:54.644Z,68.83
2022-08-16T08:40:42.119Z,68.83
2022-08-16T08:41:41.101Z,68.83
2022-08-16T08:42:41.136Z,68.83
2022-08-16T08:43:42.142Z,68.83
2022-08-16T08:44:41.045Z,68.83
2022-08-16T08:45:46.604Z,68.83
2022-08-16T08:46:42.044Z,68.83
2022-08-16T08:47:41.017Z,68.83
2022-08-16T08:48:43.914Z,68.83
2022-08-16T08:49:50.409Z,68.83
2022-08-16T08:50:41.982Z,68.83
2022-08-16T08:51:41.992Z,68.83
2022-08-16T08:52:40.962Z,68.83
2022-08-16T08:53:40.951Z,68.83
2022-08-16T08:54:40.940Z,68.83
2022-08-16T08:55:40.932Z,68.83
2022-08-16T08:56:45.393Z,68.83
2022-08-16T08:57:41.930Z,68.83
2022-08-16T08:58:40.898Z,68.83
2022-08-16T08:59:41.889Z,68.83
2022-08-16T09:00:51.104Z,68.83
2022-08-16T09:01:43.079Z,68.83
2022-08-16T09:02:41.937Z,68.83
2022-08-16T09:03:40.954Z,68.83
2022-08-16T09:04:40.854Z,68.83
2022-08-16T09:05:40.827Z,68.83
2022-08-16T09:06:43.783Z,68.83
2022-08-16T09:08:00.413Z,68.83
2022-08-16T09:08:41.814Z,68.83
2022-08-16T09:09:41.785Z,68.83
2022-08-16T09:10:41.009Z,68.83
2022-08-16T09:11:41.512Z,68.83
2022-08-16T09:12:40.751Z,68.83
2022-08-16T09:13:47.230Z,68.73
2022-08-16T09:14:51.212Z,68.83
2022-08-16T09:15:41.725Z,68.73
2022-08-16T09:17:01.772Z,68.83
2022-08-16T09:17:52.356Z,68.83
2022-08-16T09:18:41.726Z,68.83
2022-08-16T09:19:41.223Z,68.83
2022-08-16T09:20:58.389Z,68.83
2022-08-16T09:21:41.659Z,68.83
2022-08-16T09:22:40.710Z,68.83
2022-08-16T09:23:40.641Z,68.83
2022-08-16T09:24:52.507Z,68.73
2022-08-16T09:25:43.277Z,68.83
2022-08-16T09:26:45.938Z,68.73
2022-08-16T09:27:57.338Z,68.73
2022-08-16T09:29:15.825Z,68.73
2022-08-16T09:29:45.318Z,68.73
2022-08-16T09:30:44.092Z,68.73
2022-08-16T09:31:41.298Z,68.73
2022-08-16T09:32:40.544Z,68.73
2022-08-16T09:33:41.532Z,68.73
2022-08-16T09:34:40.521Z,68.73
2022-08-16T09:35:42.767Z,68.83
2022-08-16T09:36:45.953Z,68.73
2022-08-16T09:37:41.488Z,68.73
2022-08-16T09:38:40.824Z,68.73
2022-08-16T09:39:41.331Z,68.73
2022-08-16T09:40:42.838Z,68.73
2022-08-16T09:41:40.452Z,68.73
2022-08-16T09:42:56.015Z,68.73
2022-08-16T09:43:59.673Z,68.73
2022-08-16T09:45:12.446Z,68.73
2022-08-16T09:45:41.426Z,68.73
2022-08-16T09:46:49.075Z,68.73
2022-08-16T09:47:57.012Z,68.73
2022-08-16T09:48:44.865Z,68.73
2022-08-16T09:49:41.438Z,68.73
2022-08-16T09:50:40.376Z,68.83
2022-08-16T09:51:40.342Z,68.73
2022-08-16T09:52:44.400Z,68.73
2022-08-16T09:53:41.340Z,68.83
2022-08-16T09:54:40.335Z,68.73
2022-08-16T09:55:44.685Z,68.73
2022-08-16T09:56:52.319Z,68.73
2022-08-16T09:57:41.278Z,68.83
2022-08-16T09:59:04.865Z,68.83
2022-08-16T09:59:41.961Z,68.83
2022-08-16T10:00:44.049Z,68.83
2022-08-16T10:01:45.830Z,68.83
2022-08-16T10:02:44.276Z,68.73
2022-08-16T10:04:02.685Z,68.83
2022-08-16T10:04:54.342Z,68.83
2022-08-16T10:05:41.194Z,68.83
2022-08-16T10:06:40.185Z,68.83
2022-08-16T10:07:45.130Z,68.83
2022-08-16T10:09:04.122Z,68.83
2022-08-16T10:09:53.954Z,68.83
2022-08-16T10:10:41.142Z,68.83
2022-08-16T10:11:50.308Z,68.83
2022-08-16T10:12:42.960Z,68.83
2022-08-16T10:13:40.709Z,68.83
2022-08-16T10:14:40.131Z,68.83
2022-08-16T10:15:41.741Z,68.83
2022-08-16T10:16:40.081Z,68.83
2022-08-16T10:17:40.087Z,68.83
2022-08-16T10:19:00.733Z,68.83
2022-08-16T10:19:41.047Z,68.83
2022-08-16T10:20:40.037Z,68.83
2022-08-16T10:21:40.054Z,68.83
2022-08-16T10:22:40.025Z,68.83
2022-08-16T10:23:40.005Z,68.83
2022-08-16T10:24:39.996Z,68.83
2022-08-16T10:27:17.072Z,68.83
2022-08-16T10:27:17.500Z,68.83
2022-08-16T10:27:46.938Z,68.83
2022-08-16T10:28:41.819Z,68.83
2022-08-16T10:29:59.883Z,68.83
2022-08-16T10:30:40.932Z,68.83
2022-08-16T10:31:43.448Z,68.83
2022-08-16T10:32:39.935Z,68.83
2022-08-16T10:33:40.308Z,68.83
2022-08-16T10:34:39.892Z,68.83
2022-08-16T10:35:46.639Z,68.83
2022-08-16T10:36:40.868Z,68.83
2022-08-16T10:37:39.878Z,68.83
2022-08-16T10:38:39.849Z,68.83
2022-08-16T10:39:41.421Z,68.83
2022-08-16T10:40:39.877Z,68.83
2022-08-16T10:41:40.815Z,68.83
2022-08-16T10:42:39.829Z,68.83
2022-08-16T10:43:39.795Z,68.83
2022-08-16T10:44:39.792Z,68.83
2022-08-16T10:45:39.774Z,68.83
2022-08-16T10:46:42.251Z,68.83
2022-08-16T10:47:39.772Z,68.83
2022-08-16T10:48:39.745Z,68.83
2022-08-16T10:49:40.731Z,68.83
2022-08-16T10:50:39.743Z,68.83
2022-08-16T10:52:02.820Z,68.83
2022-08-16T10:53:39.748Z,68.73
2022-08-16T10:54:58.395Z,68.73
2022-08-16T10:55:44.869Z,68.83
2022-08-16T10:56:52.935Z,68.83
2022-08-16T10:57:40.650Z,68.83
2022-08-16T10:58:39.643Z,68.83
2022-08-16T10:59:51.892Z,68.73
2022-08-16T11:00:40.622Z,68.73
2022-08-16T11:01:42.977Z,68.73
2022-08-16T11:02:57.559Z,68.73
2022-08-16T11:03:42.502Z,68.73
2022-08-16T11:06:40.691Z,68.73
2022-08-16T11:07:43.401Z,68.73
2022-08-16T11:08:44.972Z,68.73
2022-08-16T11:09:43.736Z,68.73
2022-08-16T11:12:07.744Z,68.73
2022-08-16T11:12:40.547Z,68.73
2022-08-16T11:15:11.225Z,68.73
2022-08-16T11:15:40.458Z,68.73
2022-08-16T11:17:45.042Z,68.73
2022-08-16T11:19:02.940Z,68.73
2022-08-16T11:20:41.530Z,68.73
2022-08-16T11:22:22.901Z,68.73
2022-08-16T11:22:48.734Z,68.63
2022-08-16T11:23:40.424Z,68.63
2022-08-16T11:24:44.665Z,68.63
2022-08-16T11:26:40.345Z,68.63
2022-08-16T11:27:39.381Z,68.63
2022-08-16T11:29:40.344Z,68.63
2022-08-16T11:30:39.643Z,68.63
2022-08-16T11:31:39.293Z,68.63
2022-08-16T11:32:39.291Z,68.63
2022-08-16T11:33:54.983Z,68.63
2022-08-16T11:35:06.110Z,68.63
2022-08-16T11:35:43.927Z,68.63
2022-08-16T11:36:39.242Z,68.63
2022-08-16T11:38:51.934Z,68.63
2022-08-16T11:39:40.246Z,68.63
2022-08-16T11:40:40.757Z,68.63
2022-08-16T11:41:43.445Z,68.63
2022-08-16T11:42:39.180Z,68.63
2022-08-16T11:43:39.185Z,68.63
2022-08-16T11:44:52.266Z,68.63
2022-08-16T11:45:42.474Z,68.63
2022-08-16T11:46:44.991Z,68.63
2022-08-16T11:47:40.124Z,68.63
2022-08-16T11:48:39.116Z,68.63
2022-08-16T11:49:39.105Z,68.63
2022-08-16T11:50:39.115Z,68.63
2022-08-16T11:51:39.104Z,68.63
2022-08-16T11:52:39.101Z,68.63
2022-08-16T11:53:40.063Z,68.63
2022-08-16T11:54:39.061Z,68.63
2022-08-16T11:55:39.041Z,68.63
2022-08-16T11:56:52.017Z,68.63
2022-08-16T11:57:40.104Z,68.63
2022-08-16T11:58:39.011Z,68.63
2022-08-16T11:59:39.624Z,68.63
2022-08-16T12:00:51.581Z,68.63
2022-08-16T12:01:55.398Z,68.63
2022-08-16T12:02:39.969Z,68.63
2022-08-16T12:03:41.841Z,68.63
2022-08-16T12:04:39.012Z,68.63
2022-08-16T12:05:39.584Z,68.63
2022-08-16T12:06:38.933Z,68.63
2022-08-16T12:07:38.915Z,68.53
2022-08-16T12:08:38.916Z,68.53
2022-08-16T12:09:43.200Z,68.63
2022-08-16T12:10:38.885Z,68.63
2022-08-16T12:11:38.875Z,68.63
2022-08-16T12:12:38.862Z,68.63
2022-08-16T12:13:38.873Z,68.63
2022-08-16T12:14:38.843Z,68.63
2022-08-16T12:15:38.831Z,68.63
2022-08-16T12:16:38.820Z,68.63
2022-08-16T12:17:39.810Z,68.63
2022-08-16T12:18:38.800Z,68.63
2022-08-16T12:19:38.808Z,68.63
2022-08-16T12:20:38.799Z,68.63
2022-08-16T12:21:58.584Z,68.63
2022-08-16T12:22:39.790Z,68.63
2022-08-16T12:23:38.748Z,68.63
2022-08-16T12:24:38.756Z,68.63
2022-08-16T12:25:38.726Z,68.63
2022-08-16T12:26:38.739Z,68.53
2022-08-16T12:27:39.460Z,68.53
2022-08-16T12:28:56.220Z,68.53
2022-08-16T12:29:39.684Z,68.63
2022-08-16T12:30:39.162Z,68.63
2022-08-16T12:31:38.704Z,68.63
2022-08-16T12:32:41.953Z,68.63
2022-08-16T12:33:44.470Z,68.63
2022-08-16T12:34:39.632Z,68.63
2022-08-16T12:35:39.646Z,68.53
2022-08-16T12:36:38.614Z,68.53
2022-08-16T12:37:39.604Z,68.63
2022-08-16T12:38:48.452Z,68.53
2022-08-16T12:39:39.663Z,68.53
2022-08-16T12:40:41.894Z,68.53
2022-08-16T12:41:38.577Z,68.53
2022-08-16T12:42:39.569Z,68.53
2022-08-16T12:43:44.658Z,68.53
2022-08-16T12:44:39.527Z,68.53
2022-08-16T12:45:38.517Z,68.53
2022-08-16T12:46:38.525Z,68.53
2022-08-16T12:47:38.496Z,68.53
2022-08-16T12:48:38.491Z,68.53
2022-08-16T12:49:42.237Z,68.50
2022-08-16T12:50:38.482Z,68.50
2022-08-16T12:51:58.529Z,68.50
2022-08-16T12:52:44.436Z,68.50
2022-08-16T12:53:39.819Z,68.53
2022-08-16T12:54:38.424Z,68.50
2022-08-16T12:55:41.805Z,68.50
2022-08-16T12:56:38.401Z,68.50
2022-08-16T12:57:38.418Z,68.50
2022-08-16T12:58:48.746Z,68.50
2022-08-16T12:59:39.372Z,68.50
2022-08-16T13:00:38.412Z,68.50
2022-08-16T13:01:38.349Z,68.50